»·PEaware :: SKW6290 KTUS-KPHX

SKW6290 :: KTUS-KPHX

FLIGHT INFORMATION

Flight Status: Arrived
Operator:
SkyWest Airlines
More flights by this operator :: More flights under this callsign
Pilot: Anonymous 17337 (17337)
Aircraft: EMBRAER EMB-170/175
(E170)
More flights by this aircraft type
Origin: KTUS Tucson Intl
United States
Destination: KPHX Phoenix Sky Harbor Intl
United States
More flights between these airports :: More routes between these airports
Route: WLDKT3 WLDKT HOTTT PINNG1
File this flight plan on PilotEdge
Remarks: RMK / SIMBRIEF
Altitude:
(Current/Filed)
16,000ft
Speed:
(Current/Filed)
312kts
Departed: 21-Oct-22 03:56 PM
Arrived: 21-Oct-22 04:21 PM
Distance/Time
Traveled:
96nm/0:24
Distance/Time
To Go:
Arrived

Flight Plot

Page will automatically refresh every two minutes.

Flight plan parsing failed; only flown route is shown


Map Options




Map Legend


Flown Route
Filed Route
Departure Airport
Arrival Airport
Navaid (VOR, NDB)
Fix

Horizontal Profiles

Position Reports

Time Latitude Longitude Heading Altitude Ground
Speed
21-Oct-22 15:28 32.121571 -110.941750 108 2654ft 0kts
21-Oct-22 15:29 32.121571 -110.941750 108 2654ft 0kts
21-Oct-22 15:30 32.121571 -110.941750 108 2654ft 0kts
21-Oct-22 15:31 32.121571 -110.941750 108 2654ft 0kts
21-Oct-22 15:32 32.121571 -110.941750 108 2654ft 0kts
21-Oct-22 15:33 32.121571 -110.941750 108 2654ft 0kts
21-Oct-22 15:34 32.121571 -110.941750 108 2654ft 0kts
21-Oct-22 15:35 32.121571 -110.941750 108 2654ft 0kts
21-Oct-22 15:36 32.121571 -110.941750 108 2654ft 0kts
21-Oct-22 15:37 32.121571 -110.941750 108 2654ft 0kts
21-Oct-22 15:38 32.121571 -110.941750 108 2654ft 0kts
21-Oct-22 15:39 32.121571 -110.941750 108 2654ft 0kts
21-Oct-22 15:40 32.121571 -110.941750 108 2654ft 0kts
21-Oct-22 15:41 32.121571 -110.941750 108 2654ft 0kts
21-Oct-22 15:42 32.121571 -110.941750 108 2654ft 0kts
21-Oct-22 15:43 32.121571 -110.941750 108 2654ft 0kts
21-Oct-22 15:44 32.121571 -110.941750 108 2654ft 0kts
21-Oct-22 15:45 32.121701 -110.942130 116 2654ft 2kts
21-Oct-22 15:46 32.122201 -110.942508 222 2654ft 1kts
21-Oct-22 15:47 32.122338 -110.942356 222 2654ft 0kts
21-Oct-22 15:48 32.122336 -110.942358 222 2654ft 0kts
21-Oct-22 15:49 32.120702 -110.943155 129 2654ft 15kts
21-Oct-22 15:50 32.116283 -110.937942 134 2654ft 23kts
21-Oct-22 15:51 32.111499 -110.932343 134 2654ft 25kts
21-Oct-22 15:52 32.106494 -110.926425 133 2654ft 24kts
21-Oct-22 15:53 32.102807 -110.922375 203 2654ft 0kts
21-Oct-22 15:54 32.102331 -110.923123 290 2654ft 8kts
21-Oct-22 15:55 32.120544 -110.944921 311 3141ft 178kts
21-Oct-22 15:56 32.158608 -110.990213 312 5611ft 226kts
21-Oct-22 15:57 32.209926 -111.050306 313 8332ft 277kts
21-Oct-22 15:58 32.288025 -111.062317 7 11434ft 337kts
21-Oct-22 15:59 32.388103 -111.047859 1 14166ft 376kts
21-Oct-22 16:00 32.494388 -111.035818 1 15836ft 388kts
21-Oct-22 16:01 32.588707 -111.074804 319 15992ft 367kts
21-Oct-22 16:02 32.674113 -111.141438 322 15994ft 367kts
21-Oct-22 16:03 32.755656 -111.209509 304 16139ft 341kts
21-Oct-22 16:04 32.805907 -111.298199 298 15168ft 308kts
21-Oct-22 16:05 32.852398 -111.381993 299 14165ft 300kts
21-Oct-22 16:06 32.898345 -111.464329 299 13225ft 295kts
21-Oct-22 16:07 32.968396 -111.517439 332 12746ft 311kts
21-Oct-22 16:08 33.045989 -111.554757 334 11447ft 287kts
21-Oct-22 16:09 33.118748 -111.590101 333 10814ft 279kts
21-Oct-22 16:10 33.191087 -111.625715 334 9764ft 282kts
21-Oct-22 16:11 33.262297 -111.663237 331 8202ft 276kts
21-Oct-22 16:12 33.330533 -111.703801 331 6715ft 270kts
21-Oct-22 16:13 33.395069 -111.741722 328 5370ft 235kts
21-Oct-22 16:14 33.423995 -111.800277 290 4186ft 183kts
21-Oct-22 16:15 33.429044 -111.857324 268 3535ft 169kts
21-Oct-22 16:16 33.428770 -111.909966 268 2592ft 149kts
21-Oct-22 16:17 33.428816 -111.954606 269 1934ft 144kts
21-Oct-22 16:18 33.428797 -112.001320 271 1173ft 126kts
21-Oct-22 16:19 33.428877 -112.022475 269 1146ft 41kts
21-Oct-22 16:20 33.429674 -112.025490 318 1146ft 0kts
21-Oct-22 16:21 33.430369 -112.024966 56 1146ft 19kts
21-Oct-22 16:22 33.431839 -112.023442 352 1146ft 0kts
21-Oct-22 16:23 33.432176 -112.018588 90 1146ft 22kts
21-Oct-22 16:24 33.432205 -112.008567 90 1146ft 33kts
21-Oct-22 16:25 33.435449 -112.003796 358 1146ft 23kts
21-Oct-22 16:26 33.439284 -112.000871 87 1146ft 20kts
21-Oct-22 16:27 33.438797 -111.995422 170 1146ft 3kts
21-Oct-22 16:28 33.438230 -111.997963 179 1146ft 13kts
21-Oct-22 16:29 33.437984 -111.997237 89 1146ft 0kts
21-Oct-22 16:30 33.437984 -111.997237 89 1146ft 0kts
21-Oct-22 16:31 33.437984 -111.997237 89 1146ft 0kts
21-Oct-22 16:32 33.437984 -111.997237 89 1146ft 0kts
21-Oct-22 16:33 33.437984 -111.997237 89 1146ft 0kts
21-Oct-22 16:34 33.437984 -111.997237 89 1146ft 0kts

Navigation Log

Ident Type
Flight plan parsing failed, navigation log unavailable